Airport View

Enter AWOS ICAO identifier for current METAR.

ex. KFNL

KPOF 191834Z AUTO 1 3/4SM VCTS -RA FEW027 BKN065 OVC095 23/20 A2971

19 Jun 2019 18:48

Frequency: 124.225

Phone: 573-778-9172

Other Area AWOS: KMAW - K4M9 - KTKX - KSIK

TAF AMD KCGI 191829Z 1918/2018 23009KT P6SM VCTS SCT040CB TEMPO 1918/1922 VRB20G40KT 1SM +TSRA BR BKN015CB OVC040 FM192200 24009KT P6SM SCT050 BKN150 FM200000 21007KT P6SM VCTS BKN040CB FM200300 23007KT P6SM FEW060